Rockland, ME

8:21 PM EST on February 09, 2016 (GMT -0500)
Upper Park Street | | Change Station
CLOSE
Current Station
Personal Weather Station
Location: Rockland, ME
Elevation: 79 ft
Nearby Weather Stations

Elev 79 ft 44.10 °N, 69.13 °W | Updated 4 seconds ago

Overcast
Overcast
24.7 °F
Feels Like 18 °F
N
5.4
Wind Variable Wind from WNW
Gusts 6.0 mph

Today
High -- | Low -- °F
--% Chance of Precip.
Yesterday
High -- | Low -- °F
Precip. -- in
Pressure 29.60 in
Visibility 10.0 miles
Clouds Overcast 2400 ft
Windchill 18 °F
Dew Point 21 °F
Humidity 75%
Rainfall 0.00 in
Snow Depth Not available.
6:44 AM 4:56 PM
Waxing Crescent, 3% visible
METAR KRKD 100056Z AUTO VRB04KT 10SM OVC024 M06/M09 A2960 RMK AO2 SLPNO T10611094 FZRANO
Pressure 29.60 in
Visibility 10.0 miles
Clouds Overcast 2400 ft
Windchill 18 °F
Dew Point 21 °F
Humidity 75%
Rainfall 0.00 in
Snow Depth Not available.
6:44 AM 4:56 PM
Waxing Crescent, 3% visible
METAR KRKD 100056Z AUTO VRB04KT 10SM OVC024 M06/M09 A2960 RMK AO2 SLPNO T10611094 FZRANO

10-Day Weather Forecast

Almanac

Astronomy

Feb. 09, 2016 Rise Set
Actual Time
Civil Twilight
Nautical Twilight
Astronomical Twilight
Moon
Length of Visible Light
Length of Day
Tomorrow will be .
, % of the Moon is Illuminated

Today's Extremes

State Highs State Lows

Community

WunderPhotos

Upload Photos

1,891,758 photos uploaded!

WunderBlog® & News

Nearby

Air Quality

  Air Quality AQ Index Pollutant
Not available.

Snow Depth

Station Depth Elevation

Earthquake Activity

City Distance Mag. Time & Date
Minimum magnitude displayed is 2.5.

Coastal Water Temperatures

Place Temperature

Stations

Nearby Weather Stations

Station Location Temp. Windchill Dew Point Humidity Wind Precip. Elev Updated Type
                   

Watches & Warnings

There are currently no watches in effect.